sensor_id;sensor_type;location;lat;lon;timestamp;temperature;humidity
69990;DHT22;57331;52.054;5.294;2022-08-03T00:01:51;20.30;44.90
69990;DHT22;57331;52.054;5.294;2022-08-03T00:04:18;22.30;46.10
69990;DHT22;57331;52.054;5.294;2022-08-03T00:06:45;20.60;45.50
69990;DHT22;57331;52.054;5.294;2022-08-03T00:09:12;20.10;46.20
69990;DHT22;57331;52.054;5.294;2022-08-03T00:11:38;20.00;45.70
69990;DHT22;57331;52.054;5.294;2022-08-03T00:14:06;20.40;45.80
69990;DHT22;57331;52.054;5.294;2022-08-03T00:16:33;22.80;47.10
69990;DHT22;57331;52.054;5.294;2022-08-03T00:19:01;21.30;46.30
69990;DHT22;57331;52.054;5.294;2022-08-03T00:21:28;20.00;45.70
69990;DHT22;57331;52.054;5.294;2022-08-03T00:23:55;21.80;48.40
69990;DHT22;57331;52.054;5.294;2022-08-03T00:26:22;20.50;46.70
69990;DHT22;57331;52.054;5.294;2022-08-03T00:28:49;21.00;46.90
69990;DHT22;57331;52.054;5.294;2022-08-03T00:31:16;21.90;47.40
69990;DHT22;57331;52.054;5.294;2022-08-03T00:34:03;22.70;47.70
69990;DHT22;57331;52.054;5.294;2022-08-03T00:36:31;20.10;46.30
69990;DHT22;57331;52.054;5.294;2022-08-03T00:41:26;20.90;47.10
69990;DHT22;57331;52.054;5.294;2022-08-03T00:43:52;21.90;47.90
69990;DHT22;57331;52.054;5.294;2022-08-03T00:46:19;19.80;47.10
69990;DHT22;57331;52.054;5.294;2022-08-03T00:48:49;22.30;48.40
69990;DHT22;57331;52.054;5.294;2022-08-03T00:51:16;21.10;47.70
69990;DHT22;57331;52.054;5.294;2022-08-03T00:53:43;20.90;47.70
69990;DHT22;57331;52.054;5.294;2022-08-03T00:56:17;22.40;48.80
69990;DHT22;57331;52.054;5.294;2022-08-03T00:58:45;21.20;39.00
69990;DHT22;57331;52.054;5.294;2022-08-03T01:01:12;20.50;48.20
69990;DHT22;57331;52.054;5.294;2022-08-03T01:06:15;21.50;48.70
69990;DHT22;57331;52.054;5.294;2022-08-03T01:09:02;20.90;38.30
69990;DHT22;57331;52.054;5.294;2022-08-03T01:12:00;19.80;48.10
69990;DHT22;57331;52.054;5.294;2022-08-03T01:14:48;20.80;38.60
69990;DHT22;57331;52.054;5.294;2022-08-03T01:20:17;21.20;49.40
69990;DHT22;57331;52.054;5.294;2022-08-03T01:23:16;20.50;49.10
69990;DHT22;57331;52.054;5.294;2022-08-03T01:28:58;20.60;39.00
69990;DHT22;57331;52.054;5.294;2022-08-03T01:31:39;19.50;48.90
69990;DHT22;57331;52.054;5.294;2022-08-03T01:34:31;22.20;50.70
69990;DHT22;57331;52.054;5.294;2022-08-03T01:37:02;19.60;49.20
69990;DHT22;57331;52.054;5.294;2022-08-03T01:39:32;19.40;49.20
69990;DHT22;57331;52.054;5.294;2022-08-03T01:42:02;22.00;50.60
69990;DHT22;57331;52.054;5.294;2022-08-03T01:44:35;20.90;50.20
69990;DHT22;57331;52.054;5.294;2022-08-03T01:47:03;19.70;49.60
69990;DHT22;57331;52.054;5.294;2022-08-03T01:49:34;21.50;50.60
69990;DHT22;57331;52.054;5.294;2022-08-03T01:52:03;20.70;50.20
69990;DHT22;57331;52.054;5.294;2022-08-03T01:54:35;20.00;50.00
69990;DHT22;57331;52.054;5.294;2022-08-03T01:57:03;20.50;40.00
69990;DHT22;57331;52.054;5.294;2022-08-03T01:59:33;20.70;50.40
69990;DHT22;57331;52.054;5.294;2022-08-03T02:02:02;20.40;40.00
69990;DHT22;57331;52.054;5.294;2022-08-03T02:04:50;21.90;51.00
69990;DHT22;57331;52.054;5.294;2022-08-03T02:07:18;20.50;50.70
69990;DHT22;57331;52.054;5.294;2022-08-03T02:09:49;21.50;52.50
69990;DHT22;57331;52.054;5.294;2022-08-03T02:12:17;20.40;40.50
69990;DHT22;57331;52.054;5.294;2022-08-03T02:14:45;19.10;50.70
69990;DHT22;57331;52.054;5.294;2022-08-03T02:17:13;21.50;52.80
69990;DHT22;57331;52.054;5.294;2022-08-03T02:19:42;19.10;50.30
69990;DHT22;57331;52.054;5.294;2022-08-03T02:22:10;19.10;50.40
69990;DHT22;57331;52.054;5.294;2022-08-03T02:24:38;21.50;51.90
69990;DHT22;57331;52.054;5.294;2022-08-03T02:27:15;20.80;51.50
69990;DHT22;57331;52.054;5.294;2022-08-03T02:29:46;19.20;50.60
69990;DHT22;57331;52.054;5.294;2022-08-03T02:32:18;21.60;52.30
69990;DHT22;57331;52.054;5.294;2022-08-03T02:34:49;20.10;51.30
69990;DHT22;57331;52.054;5.294;2022-08-03T02:37:18;18.80;51.10
69990;DHT22;57331;52.054;5.294;2022-08-03T02:39:46;20.40;51.80
69990;DHT22;57331;52.054;5.294;2022-08-03T02:42:14;20.20;41.00
69990;DHT22;57331;52.054;5.294;2022-08-03T02:44:45;19.50;51.20
69990;DHT22;57331;52.054;5.294;2022-08-03T02:47:14;21.70;52.40
69990;DHT22;57331;52.054;5.294;2022-08-03T02:49:42;18.90;51.10
69990;DHT22;57331;52.054;5.294;2022-08-03T02:52:20;20.20;41.10
69990;DHT22;57331;52.054;5.294;2022-08-03T02:54:49;19.60;49.80
69990;DHT22;57331;52.054;5.294;2022-08-03T02:57:18;19.20;51.40
69990;DHT22;57331;52.054;5.294;2022-08-03T02:59:46;20.60;52.10
69990;DHT22;57331;52.054;5.294;2022-08-03T03:02:14;21.50;52.70
69990;DHT22;57331;52.054;5.294;2022-08-03T03:04:43;18.80;51.30
69990;DHT22;57331;52.054;5.294;2022-08-03T03:07:32;20.10;41.20
69990;DHT22;57331;52.054;5.294;2022-08-03T03:10:22;20.20;41.40
69990;DHT22;57331;52.054;5.294;2022-08-03T03:12:54;19.10;42.40
69990;DHT22;57331;52.054;5.294;2022-08-03T03:15:23;20.90;52.60
69990;DHT22;57331;52.054;5.294;2022-08-03T03:17:52;20.10;41.70
69990;DHT22;57331;52.054;5.294;2022-08-03T03:20:20;20.70;52.60
69990;DHT22;57331;52.054;5.294;2022-08-03T03:22:58;20.30;52.40
69990;DHT22;57331;52.054;5.294;2022-08-03T03:25:32;19.30;52.00
69990;DHT22;57331;52.054;5.294;2022-08-03T03:28:00;21.40;53.10
69990;DHT22;57331;52.054;5.294;2022-08-03T03:30:28;20.00;41.60
69990;DHT22;57331;52.054;5.294;2022-08-03T03:32:57;21.30;53.10
69990;DHT22;57331;52.054;5.294;2022-08-03T03:35:25;18.70;51.90
69990;DHT22;57331;52.054;5.294;2022-08-03T03:37:53;20.80;53.00
69990;DHT22;57331;52.054;5.294;2022-08-03T03:40:21;19.40;52.20
69990;DHT22;57331;52.054;5.294;2022-08-03T03:42:48;20.30;52.70
69990;DHT22;57331;52.054;5.294;2022-08-03T03:45:16;21.30;53.30
69990;DHT22;57331;52.054;5.294;2022-08-03T03:47:43;19.60;52.50
69990;DHT22;57331;52.054;5.294;2022-08-03T03:50:10;19.50;52.40
69990;DHT22;57331;52.054;5.294;2022-08-03T03:52:38;19.10;47.70
69990;DHT22;57331;52.054;5.294;2022-08-03T03:55:05;20.80;53.20
69990;DHT22;57331;52.054;5.294;2022-08-03T03:57:33;19.80;41.90
69990;DHT22;57331;52.054;5.294;2022-08-03T04:00:00;20.90;53.30
69990;DHT22;57331;52.054;5.294;2022-08-03T04:02:30;18.90;52.40
69990;DHT22;57331;52.054;5.294;2022-08-03T04:04:56;20.40;53.10
69990;DHT22;57331;52.054;5.294;2022-08-03T04:07:52;18.60;52.30
69990;DHT22;57331;52.054;5.294;2022-08-03T04:10:41;21.10;53.90
69990;DHT22;57331;52.054;5.294;2022-08-03T04:13:34;18.30;52.40
69990;DHT22;57331;52.054;5.294;2022-08-03T04:16:03;18.90;52.60
69990;DHT22;57331;52.054;5.294;2022-08-03T04:18:33;20.20;53.30
69990;DHT22;57331;52.054;5.294;2022-08-03T04:21:02;19.80;48.90
69990;DHT22;57331;52.054;5.294;2022-08-03T04:23:32;19.60;42.30
69990;DHT22;57331;52.054;5.294;2022-08-03T04:26:01;20.10;53.50
69990;DHT22;57331;52.054;5.294;2022-08-03T04:28:30;20.00;53.60
69990;DHT22;57331;52.054;5.294;2022-08-03T04:30:59;19.60;42.50
69990;DHT22;57331;52.054;5.294;2022-08-03T04:33:28;18.90;53.00
69990;DHT22;57331;52.054;5.294;2022-08-03T04:36:00;19.60;42.50
69990;DHT22;57331;52.054;5.294;2022-08-03T04:38:33;20.50;53.90
69990;DHT22;57331;52.054;5.294;2022-08-03T04:41:02;18.60;52.70
69990;DHT22;57331;52.054;5.294;2022-08-03T04:43:32;18.50;52.70
69990;DHT22;57331;52.054;5.294;2022-08-03T04:46:00;19.70;47.40
69990;DHT22;57331;52.054;5.294;2022-08-03T04:48:28;20.80;54.00
69990;DHT22;57331;52.054;5.294;2022-08-03T04:50:55;19.70;42.40
69990;DHT22;57331;52.054;5.294;2022-08-03T04:53:22;19.10;53.40
69990;DHT22;57331;52.054;5.294;2022-08-03T04:55:49;20.80;54.00
69990;DHT22;57331;52.054;5.294;2022-08-03T04:58:16;21.10;52.70
69990;DHT22;57331;52.054;5.294;2022-08-03T05:00:43;18.50;52.80
69990;DHT22;57331;52.054;5.294;2022-08-03T05:05:51;18.60;52.80
69990;DHT22;57331;52.054;5.294;2022-08-03T05:10:57;19.90;42.50
69990;DHT22;57331;52.054;5.294;2022-08-03T05:18:19;19.40;53.40
69990;DHT22;57331;52.054;5.294;2022-08-03T05:20:46;20.30;53.80
69990;DHT22;57331;52.054;5.294;2022-08-03T05:25:40;18.70;53.20
69990;DHT22;57331;52.054;5.294;2022-08-03T05:33:10;19.70;53.70
69990;DHT22;57331;52.054;5.294;2022-08-03T05:35:37;18.80;53.50
69990;DHT22;57331;52.054;5.294;2022-08-03T05:38:25;19.50;53.60
69990;DHT22;57331;52.054;5.294;2022-08-03T05:40:59;21.20;54.50
69990;DHT22;57331;52.054;5.294;2022-08-03T05:46:13;21.70;51.60
69990;DHT22;57331;52.054;5.294;2022-08-03T05:48:41;20.20;42.80
69990;DHT22;57331;52.054;5.294;2022-08-03T05:53:41;19.30;53.20
69990;DHT22;57331;52.054;5.294;2022-08-03T05:58:45;21.60;54.20
69990;DHT22;57331;52.054;5.294;2022-08-03T06:08:34;19.50;52.50
69990;DHT22;57331;52.054;5.294;2022-08-03T06:11:02;21.60;52.20
69990;DHT22;57331;52.054;5.294;2022-08-03T06:13:28;20.70;52.90
69990;DHT22;57331;52.054;5.294;2022-08-03T06:18:22;19.90;52.50
69990;DHT22;57331;52.054;5.294;2022-08-03T06:20:52;19.70;52.40
69990;DHT22;57331;52.054;5.294;2022-08-03T06:23:21;20.90;53.00
69990;DHT22;57331;52.054;5.294;2022-08-03T06:26:00;21.00;53.00
69990;DHT22;57331;52.054;5.294;2022-08-03T06:28:27;20.00;52.30
69990;DHT22;57331;52.054;5.294;2022-08-03T06:31:14;22.20;53.70
69990;DHT22;57331;52.054;5.294;2022-08-03T06:36:28;22.60;53.20
69990;DHT22;57331;52.054;5.294;2022-08-03T06:38:57;22.70;53.30
69990;DHT22;57331;52.054;5.294;2022-08-03T06:41:25;21.30;41.50
69990;DHT22;57331;52.054;5.294;2022-08-03T06:43:53;20.00;51.30
69990;DHT22;57331;52.054;5.294;2022-08-03T06:46:29;21.50;52.00
69990;DHT22;57331;52.054;5.294;2022-08-03T06:51:23;21.40;51.50
69990;DHT22;57331;52.054;5.294;2022-08-03T06:54:10;22.90;52.30
69990;DHT22;57331;52.054;5.294;2022-08-03T06:56:37;20.40;50.70
69990;DHT22;57331;52.054;5.294;2022-08-03T06:59:04;22.60;51.40
69990;DHT22;57331;52.054;5.294;2022-08-03T07:06:26;23.30;51.10
69990;DHT22;57331;52.054;5.294;2022-08-03T07:11:25;21.40;40.00
69990;DHT22;57331;52.054;5.294;2022-08-03T07:16:19;23.20;51.20
69990;DHT22;57331;52.054;5.294;2022-08-03T07:18:46;23.50;51.10
69990;DHT22;57331;52.054;5.294;2022-08-03T07:21:13;23.10;50.50
69990;DHT22;57331;52.054;5.294;2022-08-03T07:23:41;20.90;49.20
69990;DHT22;57331;52.054;5.294;2022-08-03T07:26:08;22.50;49.80
69990;DHT22;57331;52.054;5.294;2022-08-03T07:33:30;21.60;49.00
69990;DHT22;57331;52.054;5.294;2022-08-03T07:35:57;23.00;49.50
69990;DHT22;57331;52.054;5.294;2022-08-03T07:38:24;21.60;48.40
69990;DHT22;57331;52.054;5.294;2022-08-03T07:40:50;24.00;49.30
69990;DHT22;57331;52.054;5.294;2022-08-03T07:43:17;21.40;47.50
69990;DHT22;57331;52.054;5.294;2022-08-03T07:45:44;22.80;48.10
69990;DHT22;57331;52.054;5.294;2022-08-03T07:48:11;21.40;42.40
69990;DHT22;57331;52.054;5.294;2022-08-03T07:50:38;22.20;47.10
69990;DHT22;57331;52.054;5.294;2022-08-03T07:55:33;22.40;46.20
69990;DHT22;57331;52.054;5.294;2022-08-03T07:58:09;24.30;47.50
69990;DHT22;57331;52.054;5.294;2022-08-03T08:00:38;23.80;46.20
69990;DHT22;57331;52.054;5.294;2022-08-03T08:03:05;23.50;46.10
69990;DHT22;57331;52.054;5.294;2022-08-03T08:05:32;24.90;46.80
69990;DHT22;57331;52.054;5.294;2022-08-03T08:08:00;22.00;45.10
69990;DHT22;57331;52.054;5.294;2022-08-03T08:10:27;23.40;46.50
69990;DHT22;57331;52.054;5.294;2022-08-03T08:12:54;23.80;46.30
69990;DHT22;57331;52.054;5.294;2022-08-03T08:15:22;24.80;36.50
69990;DHT22;57331;52.054;5.294;2022-08-03T08:17:52;23.90;35.80
69990;DHT22;57331;52.054;5.294;2022-08-03T08:20:23;23.70;45.10
69990;DHT22;57331;52.054;5.294;2022-08-03T08:22:59;24.70;44.00
69990;DHT22;57331;52.054;5.294;2022-08-03T08:25:27;25.10;43.90
69990;DHT22;57331;52.054;5.294;2022-08-03T08:27:54;23.80;34.10
69990;DHT22;57331;52.054;5.294;2022-08-03T08:30:41;23.10;42.20
69990;DHT22;57331;52.054;5.294;2022-08-03T08:33:08;24.30;41.90
69990;DHT22;57331;52.054;5.294;2022-08-03T08:35:50;24.70;33.30
69990;DHT22;57331;52.054;5.294;2022-08-03T08:38:16;24.20;41.40
69990;DHT22;57331;52.054;5.294;2022-08-03T08:40:43;25.60;41.20
69990;DHT22;57331;52.054;5.294;2022-08-03T08:43:10;25.50;32.80
69990;DHT22;57331;52.054;5.294;2022-08-03T08:45:37;25.10;31.50
69990;DHT22;57331;52.054;5.294;2022-08-03T08:48:06;23.70;37.20
69990;DHT22;57331;52.054;5.294;2022-08-03T08:50:36;25.20;29.90
69990;DHT22;57331;52.054;5.294;2022-08-03T08:53:06;27.80;31.20
69990;DHT22;57331;52.054;5.294;2022-08-03T08:55:43;25.50;39.90
69990;DHT22;57331;52.054;5.294;2022-08-03T08:58:28;24.90;39.50
69990;DHT22;57331;52.054;5.294;2022-08-03T09:00:56;25.50;30.10
69990;DHT22;57331;52.054;5.294;2022-08-03T09:03:23;25.70;38.50
69990;DHT22;57331;52.054;5.294;2022-08-03T09:05:59;25.80;29.90
69990;DHT22;57331;52.054;5.294;2022-08-03T09:08:27;26.80;36.60
69990;DHT22;57331;52.054;5.294;2022-08-03T09:10:54;26.00;28.50
69990;DHT22;57331;52.054;5.294;2022-08-03T09:13:21;26.90;35.60
69990;DHT22;57331;52.054;5.294;2022-08-03T09:15:53;28.50;28.60
69990;DHT22;57331;52.054;5.294;2022-08-03T09:18:34;27.10;35.00
69990;DHT22;57331;52.054;5.294;2022-08-03T09:21:17;26.50;27.40
69990;DHT22;57331;52.054;5.294;2022-08-03T09:24:02;25.70;34.80
69990;DHT22;57331;52.054;5.294;2022-08-03T09:26:35;26.80;34.50
69990;DHT22;57331;52.054;5.294;2022-08-03T09:29:09;26.30;34.40
69990;DHT22;57331;52.054;5.294;2022-08-03T09:31:43;27.50;33.60
69990;DHT22;57331;52.054;5.294;2022-08-03T09:34:15;27.10;26.40
69990;DHT22;57331;52.054;5.294;2022-08-03T09:36:43;28.00;33.60
69990;DHT22;57331;52.054;5.294;2022-08-03T09:39:20;29.60;27.30
69990;DHT22;57331;52.054;5.294;2022-08-03T09:42:09;28.60;33.30
69990;DHT22;57331;52.054;5.294;2022-08-03T09:44:39;27.60;25.70
69990;DHT22;57331;52.054;5.294;2022-08-03T09:47:09;27.60;31.80
69990;DHT22;57331;52.054;5.294;2022-08-03T09:49:37;27.90;26.20
69990;DHT22;57331;52.054;5.294;2022-08-03T09:52:17;27.90;24.60
69990;DHT22;57331;52.054;5.294;2022-08-03T09:55:10;28.10;23.90
69990;DHT22;57331;52.054;5.294;2022-08-03T09:58:06;28.30;24.40
69990;DHT22;57331;52.054;5.294;2022-08-03T10:01:05;28.40;29.10
69990;DHT22;57331;52.054;5.294;2022-08-03T10:03:57;30.00;29.50
69990;DHT22;57331;52.054;5.294;2022-08-03T10:06:30;28.00;27.00
69990;DHT22;57331;52.054;5.294;2022-08-03T10:09:11;29.60;22.30
69990;DHT22;57331;52.054;5.294;2022-08-03T10:11:38;29.30;21.80
69990;DHT22;57331;52.054;5.294;2022-08-03T10:14:11;29.60;20.90
69990;DHT22;57331;52.054;5.294;2022-08-03T10:16:46;29.60;21.20
69990;DHT22;57331;52.054;5.294;2022-08-03T10:19:13;29.70;21.20
69990;DHT22;57331;52.054;5.294;2022-08-03T10:21:47;30.20;21.20
69990;DHT22;57331;52.054;5.294;2022-08-03T10:24:16;30.40;20.80
69990;DHT22;57331;52.054;5.294;2022-08-03T10:26:47;30.30;19.20
69990;DHT22;57331;52.054;5.294;2022-08-03T10:29:21;30.30;19.20
69990;DHT22;57331;52.054;5.294;2022-08-03T10:31:53;30.30;19.30
69990;DHT22;57331;52.054;5.294;2022-08-03T10:34:26;30.30;19.10
69990;DHT22;57331;52.054;5.294;2022-08-03T10:36:57;30.30;23.20
69990;DHT22;57331;52.054;5.294;2022-08-03T10:39:28;30.30;22.90
69990;DHT22;57331;52.054;5.294;2022-08-03T10:41:55;30.40;17.80
69990;DHT22;57331;52.054;5.294;2022-08-03T10:44:32;30.50;18.40
69990;DHT22;57331;52.054;5.294;2022-08-03T10:47:03;28.40;17.10
69990;DHT22;57331;52.054;5.294;2022-08-03T10:49:31;32.40;23.10
69990;DHT22;57331;52.054;5.294;2022-08-03T10:52:02;31.30;17.60
69990;DHT22;57331;52.054;5.294;2022-08-03T10:54:43;31.40;16.50
69990;DHT22;57331;52.054;5.294;2022-08-03T11:00:20;31.10;14.80
69990;DHT22;57331;52.054;5.294;2022-08-03T11:06:12;31.40;15.50
69990;DHT22;57331;52.054;5.294;2022-08-03T11:08:24;31.60;15.50
69990;DHT22;57331;52.054;5.294;2022-08-03T11:16:22;32.20;13.90
69990;DHT22;57331;52.054;5.294;2022-08-03T11:19:11;32.40;14.40
69990;DHT22;57331;52.054;5.294;2022-08-03T11:35:18;33.20;12.80
69990;DHT22;57331;52.054;5.294;2022-08-03T11:40:43;34.10;12.20
69990;DHT22;57331;52.054;5.294;2022-08-03T11:48:36;33.00;11.50
69990;DHT22;57331;52.054;5.294;2022-08-03T11:51:05;33.00;11.40
69990;DHT22;57331;52.054;5.294;2022-08-03T11:53:33;33.00;11.30
69990;DHT22;57331;52.054;5.294;2022-08-03T11:56:07;33.10;11.40
69990;DHT22;57331;52.054;5.294;2022-08-03T11:58:50;33.20;10.60
69990;DHT22;57331;52.054;5.294;2022-08-03T12:01:40;33.40;10.80
69990;DHT22;57331;52.054;5.294;2022-08-03T12:04:07;33.60;11.10
69990;DHT22;57331;52.054;5.294;2022-08-03T12:06:34;33.80;11.40
69990;DHT22;57331;52.054;5.294;2022-08-03T12:09:20;34.20;10.40
69990;DHT22;57331;52.054;5.294;2022-08-03T12:11:48;34.20;10.70
69990;DHT22;57331;52.054;5.294;2022-08-03T12:14:27;34.50;10.30
69990;DHT22;57331;52.054;5.294;2022-08-03T12:17:15;34.50;8.00
69990;DHT22;57331;52.054;5.294;2022-08-03T12:19:43;34.30;8.30
69990;DHT22;57331;52.054;5.294;2022-08-03T12:22:10;34.40;8.90
69990;DHT22;57331;52.054;5.294;2022-08-03T12:24:41;34.60;8.30
69990;DHT22;57331;52.054;5.294;2022-08-03T12:27:08;34.40;7.40
69990;DHT22;57331;52.054;5.294;2022-08-03T12:29:35;34.40;7.90
69990;DHT22;57331;52.054;5.294;2022-08-03T12:32:02;34.40;7.40
69990;DHT22;57331;52.054;5.294;2022-08-03T12:34:48;34.50;7.70
69990;DHT22;57331;52.054;5.294;2022-08-03T12:37:19;34.50;7.20
69990;DHT22;57331;52.054;5.294;2022-08-03T12:39:53;34.50;7.80
69990;DHT22;57331;52.054;5.294;2022-08-03T12:42:32;34.50;8.00
69990;DHT22;57331;52.054;5.294;2022-08-03T12:45:20;34.70;8.50
69990;DHT22;57331;52.054;5.294;2022-08-03T12:47:59;34.90;8.70
69990;DHT22;57331;52.054;5.294;2022-08-03T12:50:34;34.90;7.50
69990;DHT22;57331;52.054;5.294;2022-08-03T12:53:04;35.10;7.90
69990;DHT22;57331;52.054;5.294;2022-08-03T12:55:36;35.20;8.00
69990;DHT22;57331;52.054;5.294;2022-08-03T12:58:34;35.30;8.00
69990;DHT22;57331;52.054;5.294;2022-08-03T13:01:03;35.50;7.40
69990;DHT22;57331;52.054;5.294;2022-08-03T13:03:43;35.60;7.90
69990;DHT22;57331;52.054;5.294;2022-08-03T13:06:24;35.40;7.80
69990;DHT22;57331;52.054;5.294;2022-08-03T13:09:04;35.50;8.30
69990;DHT22;57331;52.054;5.294;2022-08-03T13:11:31;35.50;8.00
69990;DHT22;57331;52.054;5.294;2022-08-03T13:14:18;35.60;8.10
69990;DHT22;57331;52.054;5.294;2022-08-03T13:16:47;35.80;8.20
69990;DHT22;57331;52.054;5.294;2022-08-03T13:19:14;35.80;7.60
69990;DHT22;57331;52.054;5.294;2022-08-03T13:21:42;35.50;8.20
69990;DHT22;57331;52.054;5.294;2022-08-03T13:24:29;35.50;8.50
69990;DHT22;57331;52.054;5.294;2022-08-03T13:26:58;35.10;8.50
69990;DHT22;57331;52.054;5.294;2022-08-03T13:29:24;34.80;8.50
69990;DHT22;57331;52.054;5.294;2022-08-03T13:31:51;36.10;9.90
69990;DHT22;57331;52.054;5.294;2022-08-03T13:34:18;34.80;9.20
69990;DHT22;57331;52.054;5.294;2022-08-03T13:36:53;35.00;9.30
69990;DHT22;57331;52.054;5.294;2022-08-03T13:39:36;35.20;9.20
69990;DHT22;57331;52.054;5.294;2022-08-03T13:42:23;35.60;9.20
69990;DHT22;57331;52.054;5.294;2022-08-03T13:44:50;35.90;8.60
69990;DHT22;57331;52.054;5.294;2022-08-03T13:47:18;35.80;8.10
69990;DHT22;57331;52.054;5.294;2022-08-03T13:49:45;36.20;8.10
69990;DHT22;57331;52.054;5.294;2022-08-03T13:52:26;36.30;7.90
69990;DHT22;57331;52.054;5.294;2022-08-03T13:54:53;36.40;7.80
69990;DHT22;57331;52.054;5.294;2022-08-03T13:57:20;36.30;7.90
69990;DHT22;57331;52.054;5.294;2022-08-03T14:00:08;36.20;7.70
69990;DHT22;57331;52.054;5.294;2022-08-03T14:02:35;36.10;7.60
69990;DHT22;57331;52.054;5.294;2022-08-03T14:05:02;36.00;7.40
69990;DHT22;57331;52.054;5.294;2022-08-03T14:07:29;36.00;7.40
69990;DHT22;57331;52.054;5.294;2022-08-03T14:09:55;35.90;7.20
69990;DHT22;57331;52.054;5.294;2022-08-03T14:12:22;35.60;7.60
69990;DHT22;57331;52.054;5.294;2022-08-03T14:14:49;35.70;7.80
69990;DHT22;57331;52.054;5.294;2022-08-03T14:17:16;35.60;7.90
69990;DHT22;57331;52.054;5.294;2022-08-03T14:19:44;35.50;7.40
69990;DHT22;57331;52.054;5.294;2022-08-03T14:22:20;35.80;7.70
69990;DHT22;57331;52.054;5.294;2022-08-03T14:24:47;35.50;7.90
69990;DHT22;57331;52.054;5.294;2022-08-03T14:27:15;35.40;7.80
69990;DHT22;57331;52.054;5.294;2022-08-03T14:29:42;35.30;7.60
69990;DHT22;57331;52.054;5.294;2022-08-03T14:32:09;35.20;8.10
69990;DHT22;57331;52.054;5.294;2022-08-03T14:34:39;35.10;8.30
69990;DHT22;57331;52.054;5.294;2022-08-03T14:37:06;35.30;8.30
69990;DHT22;57331;52.054;5.294;2022-08-03T14:39:33;35.40;7.60
69990;DHT22;57331;52.054;5.294;2022-08-03T14:42:20;35.30;7.90
69990;DHT22;57331;52.054;5.294;2022-08-03T14:44:47;35.40;8.00
69990;DHT22;57331;52.054;5.294;2022-08-03T14:47:14;35.70;7.90
69990;DHT22;57331;52.054;5.294;2022-08-03T14:49:41;35.90;7.80
69990;DHT22;57331;52.054;5.294;2022-08-03T14:52:29;36.30;7.80
69990;DHT22;57331;52.054;5.294;2022-08-03T14:54:56;36.60;7.00
69990;DHT22;57331;52.054;5.294;2022-08-03T14:57:23;36.60;6.60
69990;DHT22;57331;52.054;5.294;2022-08-03T14:59:50;36.60;6.60
69990;DHT22;57331;52.054;5.294;2022-08-03T15:02:23;36.50;6.30
69990;DHT22;57331;52.054;5.294;2022-08-03T15:04:51;36.40;6.30
69990;DHT22;57331;52.054;5.294;2022-08-03T15:07:17;36.30;6.80
69990;DHT22;57331;52.054;5.294;2022-08-03T15:09:46;36.60;6.70
69990;DHT22;57331;52.054;5.294;2022-08-03T15:12:13;36.90;6.60
69990;DHT22;57331;52.054;5.294;2022-08-03T15:14:40;37.00;6.10
69990;DHT22;57331;52.054;5.294;2022-08-03T15:17:07;36.70;6.30
69990;DHT22;57331;52.054;5.294;2022-08-03T15:19:34;36.70;5.90
69990;DHT22;57331;52.054;5.294;2022-08-03T15:22:21;36.70;6.30
69990;DHT22;57331;52.054;5.294;2022-08-03T15:25:01;36.20;6.30
69990;DHT22;57331;52.054;5.294;2022-08-03T15:27:27;35.80;6.80
69990;DHT22;57331;52.054;5.294;2022-08-03T15:29:54;35.90;7.00
69990;DHT22;57331;52.054;5.294;2022-08-03T15:32:35;35.90;7.20
69990;DHT22;57331;52.054;5.294;2022-08-03T15:35:02;36.10;7.10
69990;DHT22;57331;52.054;5.294;2022-08-03T15:37:29;36.30;7.00
69990;DHT22;57331;52.054;5.294;2022-08-03T15:39:56;36.50;6.90
69990;DHT22;57331;52.054;5.294;2022-08-03T15:42:27;36.50;6.40
69990;DHT22;57331;52.054;5.294;2022-08-03T15:44:54;36.60;6.60
69990;DHT22;57331;52.054;5.294;2022-08-03T15:47:21;36.80;6.30
69990;DHT22;57331;52.054;5.294;2022-08-03T15:49:48;36.70;6.20
69990;DHT22;57331;52.054;5.294;2022-08-03T15:52:15;36.70;6.60
69990;DHT22;57331;52.054;5.294;2022-08-03T15:54:42;36.70;6.70
69990;DHT22;57331;52.054;5.294;2022-08-03T15:57:09;36.50;6.50
69990;DHT22;57331;52.054;5.294;2022-08-03T15:59:35;36.10;6.80
69990;DHT22;57331;52.054;5.294;2022-08-03T16:02:02;35.70;7.40
69990;DHT22;57331;52.054;5.294;2022-08-03T16:04:29;35.70;7.90
69990;DHT22;57331;52.054;5.294;2022-08-03T16:06:56;35.70;7.90
69990;DHT22;57331;52.054;5.294;2022-08-03T16:09:23;35.60;7.50
69990;DHT22;57331;52.054;5.294;2022-08-03T16:12:09;35.50;7.90
69990;DHT22;57331;52.054;5.294;2022-08-03T16:14:41;35.70;8.00
69990;DHT22;57331;52.054;5.294;2022-08-03T16:17:18;35.70;7.50
69990;DHT22;57331;52.054;5.294;2022-08-03T16:19:45;35.70;7.90
69990;DHT22;57331;52.054;5.294;2022-08-03T16:22:12;35.80;7.70
69990;DHT22;57331;52.054;5.294;2022-08-03T16:24:40;36.20;7.70
69990;DHT22;57331;52.054;5.294;2022-08-03T16:27:07;35.90;7.60
69990;DHT22;57331;52.054;5.294;2022-08-03T16:29:53;35.80;7.50
69990;DHT22;57331;52.054;5.294;2022-08-03T16:32:20;35.80;7.80
69990;DHT22;57331;52.054;5.294;2022-08-03T16:34:47;35.90;7.80
69990;DHT22;57331;52.054;5.294;2022-08-03T16:37:14;36.00;7.70
69990;DHT22;57331;52.054;5.294;2022-08-03T16:40:02;36.00;7.60
69990;DHT22;57331;52.054;5.294;2022-08-03T16:42:29;36.20;7.70
69990;DHT22;57331;52.054;5.294;2022-08-03T16:44:56;36.30;7.70
69990;DHT22;57331;52.054;5.294;2022-08-03T16:47:23;36.40;7.70
69990;DHT22;57331;52.054;5.294;2022-08-03T16:49:50;36.40;7.10
69990;DHT22;57331;52.054;5.294;2022-08-03T16:52:21;36.30;7.30
69990;DHT22;57331;52.054;5.294;2022-08-03T16:54:48;36.20;7.40
69990;DHT22;57331;52.054;5.294;2022-08-03T16:57:23;36.20;7.40
69990;DHT22;57331;52.054;5.294;2022-08-03T17:00:11;36.10;7.20
69990;DHT22;57331;52.054;5.294;2022-08-03T17:02:59;36.10;8.10
69990;DHT22;57331;52.054;5.294;2022-08-03T17:05:30;36.30;7.80
69990;DHT22;57331;52.054;5.294;2022-08-03T17:08:13;36.40;7.70
69990;DHT22;57331;52.054;5.294;2022-08-03T17:10:42;36.50;7.80
69990;DHT22;57331;52.054;5.294;2022-08-03T17:13:12;36.60;7.60
69990;DHT22;57331;52.054;5.294;2022-08-03T17:15:49;36.70;7.40
69990;DHT22;57331;52.054;5.294;2022-08-03T17:18:33;36.60;7.00
69990;DHT22;57331;52.054;5.294;2022-08-03T17:21:05;36.50;7.30
69990;DHT22;57331;52.054;5.294;2022-08-03T17:26:23;36.40;7.40
69990;DHT22;57331;52.054;5.294;2022-08-03T17:29:02;36.40;7.40
69990;DHT22;57331;52.054;5.294;2022-08-03T17:31:40;36.20;6.90
69990;DHT22;57331;52.054;5.294;2022-08-03T17:34:14;35.80;7.40
69990;DHT22;57331;52.054;5.294;2022-08-03T17:36:42;35.60;8.10
69990;DHT22;57331;52.054;5.294;2022-08-03T17:39:30;35.50;8.60
69990;DHT22;57331;52.054;5.294;2022-08-03T17:42:16;35.30;9.60
69990;DHT22;57331;52.054;5.294;2022-08-03T17:44:59;35.20;9.90
69990;DHT22;57331;52.054;5.294;2022-08-03T17:47:30;35.00;9.90
69990;DHT22;57331;52.054;5.294;2022-08-03T17:50:12;34.90;9.90